x

Port Aransas, Tx (ptat2) Weather Station

3:00pm - Tue 16th Oct 2018 All times are CDT. -5 hours from GMT.

  • Wind
    14mph, 17mph gusts
  • Sea Temp 77°f
  • Air Temp 57°f
  • Sea Pressure 1018.4mb
  • Port Aransas, Tx
  • Port Aransas, Tx

More Historic Weather Station data

Upgrade to MSW Pro to gain access to the past 30 days of data for over 8000 Wavebouys and Weather Stations around the globe.

Join

Comparision Forecast

View Surf forecast
   
Tue 10/16 3:00pm 14 17 mph 1018.4mb 77f 57f
2:00pm 15 17 mph 1019.2mb 77f 56f
1:00pm 15 18 mph 1019.8mb 77f 56f
12:00pm 16 21 mph 1020.2mb 77f 55f
11:00am 17 20 mph 1020.4mb 77f 54f
10:00am 20 23 mph 1020.2mb 77f 53f
9:00am 14 17 mph 1019.7mb 77f 52f
8:00am 16 20 mph 1019.5mb 78f 51f
7:00am 18 23 mph 1019.2mb 78f 51f
6:00am 16 21 mph 1018.9mb 78f 51f
5:00am 17 22 mph 1018.8mb 78f 51f
4:00am 20 25 mph 1018.3mb 79f 52f
3:00am 18 23 mph 1019.2mb 79f 51f
2:00am 17 21 mph 1019.7mb 79f 51f
1:00am 16 20 mph 1019.6mb 80f 52f
12:00am 17 21 mph 1019.3mb 79f 53f
Mon 10/15 11:00pm 18 23 mph 1018.9mb 78f 53f
10:00pm 17 21 mph 1018.7mb 79f 53f
9:00pm 20 22 mph 1018.3mb 79f 55f
8:00pm 20 24 mph 1018mb 79f 55f
7:00pm 18 22 mph 1017mb 80f 56f
6:00pm 22 26 mph 1016.4mb 80f 56f
5:00pm 20 24 mph 1016.4mb 80f 56f
3:00pm 22 25 mph 1015.1mb 81f 58f
2:00pm 25 29 mph 1015.3mb 81f 59f
1:00pm 25 30 mph 1015.6mb 81f -
12:00pm 29 33 mph 1015.8mb 82f -
11:00am 25 29 mph 1015.6mb 82f -
10:00am 22 26 mph 1014.3mb 82f -
9:00am 13 14 mph 1012.3mb 82f 83f
8:00am 15 17 mph 1011.5mb 82f 83f
7:00am 17 20 mph 1011mb 82f 83f
6:00am 16 18 mph 1010.7mb 82f 83f
5:00am 17 20 mph 1010.5mb 82f 83f
4:00am 16 18 mph 1010.9mb 82f 83f
3:00am 17 20 mph 1011.3mb 82f 83f
2:00am 21 24 mph 1011.1mb 82f 83f
1:00am 20 22 mph 1011.3mb 83f 83f
12:00am 20 22 mph 1011.3mb 83f 82f
Sun 10/14 11:00pm 21 22 mph 1011.2mb 83f 83f